Time;durP1;ratioP1;P1;durP2;ratioP2;P2;SDS_P1;SDS_P2;PMS_P1;PMS_P2;Temp;Humidity;BMP_temperature;BMP_pressure;BME280_temperature;BME280_humidity;BME280_pressure;Samples;Min_cycle;Max_cycle;Signal;HPM_P1;HPM_P2
2023/06/08 00:02:18;;;;;;;7.15;6.30;;;21.50;61.80;;;;;;5079614;28;20037;-54
2023/06/08 00:04:45;;;;;;;8.65;5.70;;;21.50;61.60;;;;;;5079095;28;20039;-54
2023/06/08 00:07:14;;;;;;;6.50;5.57;;;21.50;61.80;;;;;;5078944;28;20391;-54
2023/06/08 00:09:40;;;;;;;6.95;5.53;;;21.40;61.40;;;;;;5079563;28;20096;-55
2023/06/08 00:12:07;;;;;;;8.25;5.82;;;21.40;61.40;;;;;;5078820;28;20025;-54
2023/06/08 00:14:35;;;;;;;7.10;6.15;;;21.40;62.10;;;;;;5078807;28;20033;-54
2023/06/08 00:17:04;;;;;;;7.40;5.65;;;21.40;61.50;;;;;;5078833;28;20040;-55
2023/06/08 00:19:36;;;;;;;6.53;5.82;;;21.40;61.70;;;;;;5079269;28;20032;-54
2023/06/08 00:22:07;;;;;;;6.97;5.53;;;21.40;61.60;;;;;;5079392;28;20028;-55
2023/06/08 00:24:35;;;;;;;6.78;6.07;;;21.40;61.60;;;;;;5079092;28;20048;-55
2023/06/08 00:27:02;;;;;;;7.97;5.75;;;21.30;61.70;;;;;;5079617;28;20059;-56
2023/06/08 00:29:27;;;;;;;6.43;5.65;;;21.40;61.70;;;;;;5078929;28;20055;-55
2023/06/08 00:31:53;;;;;;;7.35;5.90;;;21.30;61.70;;;;;;5078659;28;20032;-56
2023/06/08 00:34:19;;;;;;;7.97;5.80;;;21.40;61.90;;;;;;5078672;28;20134;-56
2023/06/08 00:36:45;;;;;;;7.00;5.72;;;21.30;61.90;;;;;;5078827;28;20028;-55
2023/06/08 00:39:12;;;;;;;6.50;5.80;;;21.30;61.80;;;;;;5079260;28;20035;-56
2023/06/08 00:41:38;;;;;;;7.00;5.35;;;21.30;61.90;;;;;;5078902;28;20506;-56
2023/06/08 00:44:08;;;;;;;8.00;5.65;;;21.30;62.00;;;;;;5079259;28;20021;-56
2023/06/08 00:46:34;;;;;;;6.77;6.03;;;21.30;61.80;;;;;;5079380;28;20025;-55
2023/06/08 00:49:00;;;;;;;6.43;5.72;;;21.30;61.70;;;;;;5078526;28;20027;-56
2023/06/08 00:51:31;;;;;;;7.55;5.82;;;21.30;61.70;;;;;;5078927;28;20027;-55
2023/06/08 00:53:57;;;;;;;8.55;6.00;;;21.30;61.70;;;;;;5078826;28;20054;-54
2023/06/08 00:56:26;;;;;;;7.57;5.75;;;21.20;61.60;;;;;;5078759;28;20041;-56
2023/06/08 00:58:56;;;;;;;7.00;5.93;;;21.20;61.50;;;;;;5077364;28;20084;-56
2023/06/08 01:01:25;;;;;;;7.10;5.90;;;21.20;61.50;;;;;;5078761;28;20033;-56
2023/06/08 01:03:51;;;;;;;7.25;5.95;;;21.20;61.70;;;;;;5078743;28;20361;-55
2023/06/08 01:06:20;;;;;;;7.63;6.32;;;21.10;61.70;;;;;;5079482;28;20040;-54
2023/06/08 01:09:12;;;;;;;7.95;6.55;;;21.10;61.90;;;;;;5077697;28;20072;-54
2023/06/08 01:11:59;;;;;;;7.15;6.07;;;21.10;62.10;;;;;;5079351;28;20025;-55
2023/06/08 01:14:52;;;;;;;7.43;5.95;;;21.10;61.90;;;;;;5079600;28;20523;-56
2023/06/08 01:17:23;;;;;;;8.68;6.30;;;21.10;62.20;;;;;;5079127;28;20035;-55
2023/06/08 01:20:06;;;;;;;7.78;6.25;;;21.00;62.10;;;;;;5079473;28;20028;-56
2023/06/08 01:22:57;;;;;;;8.10;6.07;;;21.00;62.70;;;;;;5078563;28;20142;-55
2023/06/08 01:25:31;;;;;;;8.70;6.35;;;21.10;62.90;;;;;;5079083;28;20024;-55
2023/06/08 01:28:13;;;;;;;12.82;6.50;;;21.00;62.90;;;;;;5078102;28;20024;-55
2023/06/08 01:30:46;;;;;;;8.98;6.55;;;21.00;62.80;;;;;;5079265;28;20087;-55
2023/06/08 01:33:18;;;;;;;8.13;5.97;;;21.00;62.60;;;;;;5078101;28;20017;-56
2023/06/08 01:36:02;;;;;;;7.53;6.53;;;21.00;62.90;;;;;;5076363;28;20042;-56
2023/06/08 01:38:44;;;;;;;7.65;6.13;;;21.00;63.00;;;;;;5076524;28;20020;-56
2023/06/08 01:41:17;;;;;;;7.90;6.63;;;21.00;63.10;;;;;;5076733;28;20016;-55
2023/06/08 01:43:46;;;;;;;9.13;6.18;;;21.00;63.20;;;;;;5076562;28;20028;-57
2023/06/08 01:46:14;;;;;;;8.05;6.13;;;21.00;63.20;;;;;;5075766;28;20021;-56
2023/06/08 01:48:40;;;;;;;7.05;6.10;;;21.00;63.30;;;;;;5076106;28;20082;-56
2023/06/08 01:51:07;;;;;;;7.10;5.63;;;21.00;63.30;;;;;;5077447;28;20021;-57
2023/06/08 01:53:33;;;;;;;8.13;6.43;;;21.00;63.20;;;;;;5059643;28;20115;-55
2023/06/08 01:55:59;;;;;;;6.93;5.97;;;21.00;63.20;;;;;;5077040;28;20029;-55
2023/06/08 01:58:24;;;;;;;8.55;6.50;;;21.00;63.10;;;;;;5074911;28;20028;-55
2023/06/08 02:00:50;;;;;;;7.80;6.28;;;21.00;63.30;;;;;;5075598;28;20032;-56
2023/06/08 02:03:16;;;;;;;9.75;6.65;;;21.00;63.50;;;;;;5075627;28;20033;-59
2023/06/08 02:05:41;;;;;;;8.73;6.22;;;21.00;63.50;;;;;;5075839;28;20064;-56
2023/06/08 02:08:07;;;;;;;8.15;6.30;;;21.00;63.60;;;;;;5076281;28;20048;-55
2023/06/08 02:10:33;;;;;;;7.05;6.10;;;21.00;63.60;;;;;;5076221;28;20380;-57
2023/06/08 02:12:59;;;;;;;8.98;6.25;;;21.00;63.50;;;;;;5077752;28;20020;-56
2023/06/08 02:15:25;;;;;;;8.65;6.20;;;21.00;63.50;;;;;;5077997;28;20051;-56
2023/06/08 02:17:51;;;;;;;8.30;6.35;;;21.00;63.70;;;;;;5078266;28;20392;-56
2023/06/08 02:20:17;;;;;;;7.22;6.28;;;21.00;63.90;;;;;;5078329;28;20418;-57
2023/06/08 02:22:44;;;;;;;9.05;6.80;;;21.00;63.70;;;;;;5078221;28;20028;-56
2023/06/08 02:25:10;;;;;;;8.13;6.32;;;21.00;63.90;;;;;;5077969;28;20036;-56
2023/06/08 02:27:36;;;;;;;8.23;6.78;;;20.90;63.90;;;;;;5078157;28;20032;-54
2023/06/08 02:30:07;;;;;;;8.27;6.63;;;20.90;64.10;;;;;;5078243;28;20460;-57
2023/06/08 02:32:33;;;;;;;7.55;6.07;;;21.00;64.80;;;;;;5078446;28;20078;-57
2023/06/08 02:35:03;;;;;;;7.68;6.18;;;21.00;64.10;;;;;;5078546;28;20028;-54
2023/06/08 02:37:29;;;;;;;7.10;6.32;;;20.90;64.10;;;;;;5077427;28;20043;-55
2023/06/08 02:39:54;;;;;;;7.47;6.07;;;20.90;64.30;;;;;;5079554;28;20492;-54
2023/06/08 02:42:20;;;;;;;7.18;5.70;;;21.00;64.20;;;;;;5078817;28;20029;-52
2023/06/08 02:44:46;;;;;;;7.30;6.30;;;21.00;64.00;;;;;;5078618;28;20035;-55
2023/06/08 02:47:16;;;;;;;8.60;6.40;;;21.00;64.30;;;;;;5077542;28;20029;-55
2023/06/08 02:49:41;;;;;;;7.25;6.15;;;21.00;64.00;;;;;;5079340;28;20028;-54
2023/06/08 02:52:07;;;;;;;8.77;6.35;;;21.00;63.80;;;;;;5076618;28;20039;-54
2023/06/08 02:54:33;;;;;;;7.43;6.05;;;21.00;64.20;;;;;;5078334;28;20476;-55
2023/06/08 02:56:59;;;;;;;7.57;6.13;;;21.00;64.00;;;;;;5077950;28;20038;-55
2023/06/08 02:59:25;;;;;;;7.88;6.45;;;21.00;63.90;;;;;;5077748;28;20056;-55
2023/06/08 03:01:54;;;;;;;10.35;6.35;;;21.00;63.90;;;;;;5077396;28;20067;-55
2023/06/08 03:04:22;;;;;;;7.95;6.40;;;21.00;64.20;;;;;;5077280;28;20384;-56
2023/06/08 03:06:53;;;;;;;8.00;6.50;;;21.10;64.40;;;;;;5076841;28;20085;-55
2023/06/08 03:09:28;;;;;;;7.80;6.40;;;21.10;64.30;;;;;;5078238;28;20088;-55
2023/06/08 03:11:54;;;;;;;8.32;6.10;;;21.10;64.20;;;;;;5076935;28;20040;-56
2023/06/08 03:14:20;;;;;;;6.93;5.78;;;21.20;64.20;;;;;;5077356;28;20108;-55
2023/06/08 03:16:47;;;;;;;7.43;6.28;;;21.20;64.00;;;;;;5076981;28;20024;-56
2023/06/08 03:19:13;;;;;;;8.77;6.13;;;21.20;63.80;;;;;;5076877;28;20033;-55
2023/06/08 03:21:41;;;;;;;6.95;5.65;;;21.30;63.70;;;;;;5080612;28;20035;-56
2023/06/08 03:24:08;;;;;;;7.18;5.82;;;21.40;63.50;;;;;;5081096;28;20048;-55
2023/06/08 03:26:33;;;;;;;6.00;5.40;;;21.40;64.00;;;;;;5079337;28;20445;-55
2023/06/08 03:29:00;;;;;;;7.65;5.43;;;21.50;63.30;;;;;;5079350;28;20012;-55
2023/06/08 03:31:26;;;;;;;6.28;5.05;;;21.60;63.10;;;;;;5080209;28;20025;-55
2023/06/08 03:33:51;;;;;;;6.75;5.50;;;21.60;62.80;;;;;;5079465;28;20137;-54
2023/06/08 03:36:18;;;;;;;7.13;5.03;;;21.70;63.00;;;;;;5078052;28;20031;-55
2023/06/08 03:38:44;;;;;;;7.47;5.78;;;21.90;63.10;;;;;;5078326;28;20080;-54
2023/06/08 03:41:09;;;;;;;8.55;5.43;;;22.10;62.50;;;;;;5076597;28;20380;-53
2023/06/08 03:43:35;;;;;;;7.50;5.40;;;22.50;62.10;;;;;;5076204;28;20086;-55
2023/06/08 03:46:02;;;;;;;6.32;5.38;;;22.90;60.90;;;;;;5076529;28;20043;-55
2023/06/08 03:48:27;;;;;;;8.80;5.97;;;23.20;60.40;;;;;;5077287;28;20024;-54
2023/06/08 03:50:53;;;;;;;8.13;5.57;;;23.40;60.00;;;;;;5076802;28;20035;-53
2023/06/08 03:53:19;;;;;;;5.47;4.85;;;23.60;59.80;;;;;;5077603;28;20029;-54
2023/06/08 03:55:44;;;;;;;8.70;5.60;;;24.20;59.60;;;;;;5080356;28;20464;-55
2023/06/08 03:58:12;;;;;;;7.30;4.90;;;24.90;58.60;;;;;;5080772;28;20043;-56
2023/06/08 04:00:38;;;;;;;7.95;5.18;;;25.10;57.10;;;;;;5080182;28;20103;-55
2023/06/08 04:03:05;;;;;;;6.53;5.30;;;25.30;56.70;;;;;;5080365;28;20023;-56
2023/06/08 04:05:30;;;;;;;6.57;5.32;;;25.50;56.10;;;;;;5079987;28;20502;-53
2023/06/08 04:08:01;;;;;;;7.13;4.75;;;25.50;55.60;;;;;;5079414;28;20032;-56
2023/06/08 04:10:26;;;;;;;8.77;5.75;;;25.30;55.60;;;;;;5061440;28;20540;-55
2023/06/08 04:12:52;;;;;;;6.28;4.78;;;25.10;55.80;;;;;;5061196;28;20024;-54
2023/06/08 04:15:18;;;;;;;6.53;4.95;;;24.80;55.90;;;;;;5079133;28;20107;-55
2023/06/08 04:17:46;;;;;;;7.38;5.03;;;24.60;56.30;;;;;;5078382;28;20088;-55
2023/06/08 04:20:12;;;;;;;6.82;5.22;;;24.40;56.70;;;;;;5078961;28;20032;-55
2023/06/08 04:22:38;;;;;;;6.72;5.50;;;24.10;57.20;;;;;;5077932;28;20093;-54
2023/06/08 04:25:05;;;;;;;6.25;5.22;;;23.90;57.20;;;;;;5077987;28;20392;-53
2023/06/08 04:27:31;;;;;;;6.05;5.03;;;23.70;57.60;;;;;;5077611;28;20025;-55
2023/06/08 04:29:57;;;;;;;6.43;4.85;;;23.60;58.00;;;;;;5077858;28;20043;-52
2023/06/08 04:32:23;;;;;;;6.93;5.25;;;23.40;58.20;;;;;;5077842;28;20377;-55
2023/06/08 04:34:48;;;;;;;7.40;5.05;;;23.30;58.60;;;;;;5077448;28;20037;-54
2023/06/08 04:37:15;;;;;;;6.55;4.57;;;23.20;58.70;;;;;;5077863;28;20494;-54
2023/06/08 04:39:40;;;;;;;5.68;4.80;;;23.10;59.00;;;;;;5078150;28;20028;-55
2023/06/08 04:42:06;;;;;;;7.47;4.80;;;23.10;59.20;;;;;;5077510;28;20032;-55
2023/06/08 04:44:33;;;;;;;10.38;5.30;;;23.00;59.00;;;;;;5077456;28;20032;-55
2023/06/08 04:46:59;;;;;;;6.05;4.63;;;22.90;59.20;;;;;;5078825;28;20031;-55
2023/06/08 04:49:31;;;;;;;8.10;5.25;;;22.80;59.50;;;;;;5077720;28;20029;-55
2023/06/08 04:52:00;;;;;;;5.60;5.00;;;22.80;60.50;;;;;;5077657;28;20036;-55
2023/06/08 04:54:29;;;;;;;5.85;5.05;;;22.80;60.20;;;;;;5077877;28;20139;-56
2023/06/08 04:56:58;;;;;;;8.38;4.78;;;22.80;60.10;;;;;;5077415;28;20021;-56
2023/06/08 04:59:27;;;;;;;6.95;4.90;;;22.80;60.30;;;;;;5078311;28;20031;-55
2023/06/08 05:01:54;;;;;;;6.00;4.78;;;22.80;60.60;;;;;;5078003;28;20025;-55
2023/06/08 05:04:20;;;;;;;5.40;4.85;;;22.80;60.40;;;;;;5078203;28;20082;-55
2023/06/08 05:06:46;;;;;;;4.85;4.30;;;22.80;60.80;;;;;;5077372;28;20028;-55
2023/06/08 05:09:12;;;;;;;5.78;4.72;;;22.80;60.70;;;;;;5077503;28;20053;-54
2023/06/08 05:11:38;;;;;;;6.30;4.60;;;22.80;60.40;;;;;;5078005;28;20447;-54
2023/06/08 05:14:04;;;;;;;6.72;4.93;;;22.90;60.50;;;;;;5077133;28;20036;-53
2023/06/08 05:16:30;;;;;;;5.25;4.75;;;22.90;60.50;;;;;;5076992;28;20088;-55
2023/06/08 05:18:55;;;;;;;7.07;4.50;;;22.90;61.30;;;;;;5077512;28;20028;-54
2023/06/08 05:21:21;;;;;;;7.50;5.30;;;22.90;60.80;;;;;;5077071;28;20028;-55
2023/06/08 05:23:47;;;;;;;7.65;5.65;;;22.90;60.80;;;;;;5076764;28;20372;-55
2023/06/08 05:26:13;;;;;;;5.72;5.13;;;23.00;60.90;;;;;;5076601;28;20407;-55
2023/06/08 05:28:38;;;;;;;6.55;5.40;;;23.00;61.20;;;;;;5077068;28;20108;-55
2023/06/08 05:31:04;;;;;;;6.45;5.28;;;23.10;61.20;;;;;;5077250;28;20024;-55
2023/06/08 05:33:30;;;;;;;7.80;4.93;;;23.10;61.10;;;;;;5077013;28;20056;-55
2023/06/08 05:35:55;;;;;;;6.53;5.38;;;23.20;61.20;;;;;;5076595;28;20084;-55
2023/06/08 05:38:21;;;;;;;7.38;5.18;;;23.20;60.80;;;;;;5076694;28;20095;-52
2023/06/08 05:40:47;;;;;;;9.15;5.47;;;23.30;60.60;;;;;;5076668;28;20024;-55
2023/06/08 05:43:12;;;;;;;8.40;5.65;;;23.40;60.60;;;;;;5076048;28;20032;-55
2023/06/08 05:45:38;;;;;;;5.50;4.95;;;23.50;61.50;;;;;;5076883;28;20055;-55
2023/06/08 05:48:04;;;;;;;7.43;5.80;;;23.60;60.40;;;;;;5076334;28;20027;-55
2023/06/08 05:50:30;;;;;;;7.68;4.72;;;23.70;60.30;;;;;;5076749;28;20024;-53
2023/06/08 05:52:56;;;;;;;5.05;4.47;;;23.80;60.00;;;;;;5076580;28;20028;-55
2023/06/08 05:55:22;;;;;;;6.45;5.28;;;23.90;60.00;;;;;;5076793;28;20035;-55
2023/06/08 05:57:47;;;;;;;7.22;4.75;;;24.00;59.90;;;;;;5076196;28;20024;-55
2023/06/08 06:00:15;;;;;;;7.47;5.22;;;24.00;59.60;;;;;;5076923;28;20043;-54
2023/06/08 06:02:41;;;;;;;7.68;5.00;;;24.00;59.40;;;;;;5077123;28;20078;-55
2023/06/08 06:05:10;;;;;;;6.47;5.22;;;24.10;59.40;;;;;;5077075;28;20083;-55
2023/06/08 06:07:36;;;;;;;5.47;4.88;;;24.20;59.70;;;;;;5076614;28;20500;-55
2023/06/08 06:10:06;;;;;;;5.18;4.10;;;24.30;59.40;;;;;;5076663;28;20021;-56
2023/06/08 06:12:32;;;;;;;7.45;4.70;;;24.40;59.00;;;;;;5077267;28;20456;-55
2023/06/08 06:14:57;;;;;;;8.57;4.50;;;24.50;58.50;;;;;;5076930;28;20036;-55
2023/06/08 06:17:23;;;;;;;6.68;3.97;;;24.50;58.00;;;;;;5076986;28;20032;-55
2023/06/08 06:19:49;;;;;;;7.50;3.90;;;24.50;57.80;;;;;;5076250;28;20040;-55
2023/06/08 06:22:16;;;;;;;6.57;4.07;;;24.60;57.70;;;;;;5078779;28;20029;-55
2023/06/08 06:24:41;;;;;;;5.50;4.68;;;24.70;57.70;;;;;;5077457;28;20056;-56
2023/06/08 06:27:07;;;;;;;4.70;3.78;;;24.80;57.60;;;;;;5081354;28;20074;-55
2023/06/08 06:29:33;;;;;;;6.15;4.18;;;24.80;57.20;;;;;;5086129;28;20024;-56
2023/06/08 06:31:59;;;;;;;5.00;3.80;;;24.80;57.30;;;;;;5082533;28;20024;-56
2023/06/08 06:34:25;;;;;;;5.53;4.22;;;24.80;57.40;;;;;;5081175;28;20489;-54
2023/06/08 06:36:51;;;;;;;6.47;4.00;;;24.90;57.90;;;;;;5082540;28;20028;-55
2023/06/08 06:39:18;;;;;;;5.05;4.00;;;24.90;57.40;;;;;;5063344;28;20029;-55
2023/06/08 06:41:44;;;;;;;5.15;3.97;;;25.00;57.30;;;;;;5081021;28;20035;-56
2023/06/08 06:44:09;;;;;;;4.80;4.10;;;24.90;57.10;;;;;;5081999;28;20025;-55
2023/06/08 06:46:35;;;;;;;4.85;3.67;;;25.00;57.20;;;;;;5081967;28;20047;-54
2023/06/08 06:49:01;;;;;;;5.05;3.95;;;25.00;57.10;;;;;;5080293;28;20023;-55
2023/06/08 06:51:26;;;;;;;5.18;3.95;;;25.00;57.10;;;;;;5081435;28;20025;-54
2023/06/08 06:53:52;;;;;;;5.10;3.92;;;25.00;57.10;;;;;;5080308;28;20033;-55
2023/06/08 06:56:18;;;;;;;4.82;3.58;;;25.00;57.10;;;;;;5082454;28;20395;-56
2023/06/08 06:58:44;;;;;;;4.97;3.92;;;25.00;57.40;;;;;;5084102;28;20029;-55
2023/06/08 07:01:15;;;;;;;4.90;3.78;;;25.00;57.20;;;;;;5083431;28;20539;-51
2023/06/08 07:03:46;;;;;;;4.90;3.80;;;25.00;56.70;;;;;;5083161;28;20055;-55
2023/06/08 07:06:15;;;;;;;7.68;4.18;;;25.00;56.60;;;;;;5087061;28;20025;-55
2023/06/08 07:08:44;;;;;;;5.78;3.78;;;25.00;56.90;;;;;;5088723;28;20044;-53
2023/06/08 07:11:11;;;;;;;5.07;4.05;;;25.00;56.70;;;;;;5088578;28;20046;-55
2023/06/08 07:13:37;;;;;;;5.07;3.83;;;25.10;56.60;;;;;;5092609;28;20020;-54
2023/06/08 07:16:03;;;;;;;4.40;3.60;;;25.10;56.80;;;;;;5078649;28;20085;-55
2023/06/08 07:18:29;;;;;;;5.75;3.70;;;25.10;56.80;;;;;;5091841;28;20024;-55
2023/06/08 07:20:56;;;;;;;6.18;3.90;;;25.10;56.90;;;;;;5095383;28;20035;-53
2023/06/08 07:23:22;;;;;;;6.95;4.40;;;25.10;56.90;;;;;;5095838;28;20082;-53
2023/06/08 07:25:47;;;;;;;5.32;3.80;;;25.20;56.90;;;;;;5093991;28;20067;-54
2023/06/08 07:28:13;;;;;;;7.88;4.60;;;25.10;57.10;;;;;;5093305;28;20052;-51
2023/06/08 07:30:38;;;;;;;4.82;3.80;;;25.20;56.90;;;;;;5093891;28;20032;-55
2023/06/08 07:33:04;;;;;;;6.50;3.67;;;25.20;56.90;;;;;;5090285;28;20013;-54
2023/06/08 07:35:30;;;;;;;5.40;3.92;;;25.20;57.00;;;;;;5084613;28;20024;-54
2023/06/08 07:37:55;;;;;;;7.07;4.07;;;25.20;56.90;;;;;;5083887;28;20029;-55
2023/06/08 07:40:21;;;;;;;5.13;3.83;;;25.20;56.90;;;;;;5085720;28;20202;-55
2023/06/08 07:42:47;;;;;;;5.53;3.72;;;25.20;56.80;;;;;;5090643;28;20428;-53
2023/06/08 07:45:13;;;;;;;5.78;4.15;;;25.20;56.80;;;;;;5092447;28;20361;-53
2023/06/08 07:47:41;;;;;;;5.05;4.25;;;25.30;56.70;;;;;;5093905;28;20032;-49
2023/06/08 07:50:07;;;;;;;4.60;3.75;;;25.20;56.60;;;;;;5086376;28;20025;-53
2023/06/08 07:52:33;;;;;;;7.07;3.90;;;25.20;56.30;;;;;;5088378;28;20033;-54
2023/06/08 07:54:59;;;;;;;5.10;3.75;;;25.20;56.10;;;;;;5083058;28;20521;-55
2023/06/08 07:57:25;;;;;;;7.55;4.13;;;25.20;56.70;;;;;;5080748;28;20059;-55
2023/06/08 07:59:51;;;;;;;4.63;3.92;;;25.20;57.10;;;;;;5091828;28;20024;-52
2023/06/08 08:02:16;;;;;;;4.63;3.60;;;25.20;56.80;;;;;;5094600;28;20025;-56
2023/06/08 08:04:42;;;;;;;5.03;3.83;;;25.20;56.50;;;;;;5095854;28;20510;-52
2023/06/08 08:07:07;;;;;;;5.50;4.20;;;25.10;56.70;;;;;;5095396;28;20039;-52
2023/06/08 08:09:33;;;;;;;4.88;4.00;;;25.10;56.70;;;;;;5093457;28;20084;-58
2023/06/08 08:11:59;;;;;;;4.13;3.70;;;25.10;56.70;;;;;;5097348;28;20013;-51
2023/06/08 08:14:25;;;;;;;5.93;3.70;;;25.10;56.90;;;;;;5097843;28;20019;-55
2023/06/08 08:16:51;;;;;;;5.28;3.95;;;25.10;57.20;;;;;;5084126;28;20043;-54
2023/06/08 08:19:17;;;;;;;6.65;3.80;;;25.10;58.00;;;;;;5068910;28;20028;-57
2023/06/08 08:21:42;;;;;;;6.30;3.88;;;25.10;57.20;;;;;;5063429;28;20025;-57
2023/06/08 08:24:08;;;;;;;5.78;3.92;;;25.10;57.10;;;;;;5060566;28;20033;-56
2023/06/08 08:26:37;;;;;;;5.10;3.88;;;25.10;57.00;;;;;;5055972;28;20441;-54
2023/06/08 08:29:03;;;;;;;5.15;3.75;;;25.10;57.10;;;;;;5060906;28;20115;-53
2023/06/08 08:31:28;;;;;;;6.63;3.80;;;25.10;57.10;;;;;;5058624;28;20044;-54
2023/06/08 08:33:54;;;;;;;5.05;3.90;;;25.10;57.20;;;;;;5063789;28;20064;-53
2023/06/08 08:36:20;;;;;;;5.47;4.05;;;25.20;57.20;;;;;;5065107;28;20021;-51
2023/06/08 08:38:45;;;;;;;5.30;4.20;;;25.20;57.20;;;;;;5074203;28;20044;-54
2023/06/08 08:41:14;;;;;;;6.32;4.50;;;25.20;57.30;;;;;;5072629;28;20009;-53
2023/06/08 08:44:01;;;;;;;5.20;3.80;;;25.20;57.40;;;;;;5077974;28;20051;-52
2023/06/08 08:46:37;;;;;;;5.43;3.88;;;25.30;57.40;;;;;;5074983;28;20033;-52
2023/06/08 08:49:15;;;;;;;5.70;3.70;;;25.30;57.40;;;;;;5089044;28;20041;-53
2023/06/08 08:51:46;;;;;;;5.70;3.83;;;25.30;57.40;;;;;;5087347;28;20129;-52
2023/06/08 08:54:13;;;;;;;4.15;3.67;;;25.40;57.70;;;;;;5083385;28;20086;-52
2023/06/08 08:56:39;;;;;;;6.07;3.97;;;25.40;57.80;;;;;;5085019;28;20383;-52
2023/06/08 08:59:05;;;;;;;6.18;3.85;;;25.40;57.80;;;;;;5088933;28;20020;-51
2023/06/08 09:01:33;;;;;;;4.65;3.97;;;25.40;57.90;;;;;;5088296;28;20025;-53
2023/06/08 09:03:59;;;;;;;7.22;4.20;;;25.40;57.70;;;;;;5068628;28;20040;-51
2023/06/08 09:06:28;;;;;;;7.57;4.10;;;25.40;57.30;;;;;;5089684;28;20425;-52
2023/06/08 09:08:54;;;;;;;5.60;4.30;;;25.40;57.20;;;;;;5090400;28;20045;-51
2023/06/08 09:11:19;;;;;;;6.57;4.55;;;25.40;57.60;;;;;;5088312;28;20025;-49
2023/06/08 09:13:45;;;;;;;6.15;4.20;;;25.40;57.90;;;;;;5088495;28;20503;-52
2023/06/08 09:16:12;;;;;;;6.97;4.10;;;25.40;57.90;;;;;;5091275;28;20104;-51
2023/06/08 09:18:38;;;;;;;5.95;4.00;;;25.40;57.70;;;;;;5092803;28;20023;-55
2023/06/08 09:21:23;;;;;;;5.82;3.60;;;25.30;57.70;;;;;;5096002;28;20513;-52
2023/06/08 09:24:12;;;;;;;6.80;3.60;;;25.30;57.60;;;;;;5096241;28;20025;-55
2023/06/08 09:26:49;;;;;;;5.07;3.67;;;25.30;57.70;;;;;;5096053;28;20013;-53
2023/06/08 09:29:44;;;;;;;6.30;4.35;;;25.30;57.70;;;;;;5095575;28;20025;-50
2023/06/08 09:32:14;;;;;;;4.20;3.72;;;25.30;57.70;;;;;;5094357;28;20024;-54
2023/06/08 09:34:49;;;;;;;4.18;3.78;;;25.20;57.90;;;;;;5094557;28;20043;-54
2023/06/08 09:37:15;;;;;;;4.75;3.60;;;25.20;57.90;;;;;;5092590;28;20035;-53
2023/06/08 09:39:42;;;;;;;6.18;4.00;;;25.20;58.20;;;;;;5090739;28;20029;-54
2023/06/08 09:42:08;;;;;;;6.38;4.00;;;25.20;58.30;;;;;;5089736;28;20034;-55
2023/06/08 09:44:35;;;;;;;4.80;3.65;;;25.20;58.30;;;;;;5089171;28;20027;-53
2023/06/08 09:47:22;;;;;;;5.28;3.83;;;25.20;58.20;;;;;;5090184;28;20084;-56
2023/06/08 09:49:52;;;;;;;5.13;3.78;;;25.20;57.90;;;;;;5088984;28;20021;-53
2023/06/08 09:52:22;;;;;;;4.40;3.92;;;25.20;58.60;;;;;;5088991;28;20025;-54
2023/06/08 09:54:49;;;;;;;6.75;3.95;;;25.20;57.80;;;;;;5085414;28;20032;-55
2023/06/08 09:57:16;;;;;;;5.47;4.22;;;25.20;57.70;;;;;;5078999;28;20056;-55
2023/06/08 09:59:50;;;;;;;6.70;3.90;;;25.20;57.50;;;;;;5088380;28;20448;-52
2023/06/08 10:02:33;;;;;;;5.80;4.05;;;25.30;57.80;;;;;;5087626;28;20009;-54
2023/06/08 10:05:06;;;;;;;4.90;3.80;;;25.30;57.80;;;;;;5086245;28;20016;-55
2023/06/08 10:07:35;;;;;;;5.32;3.83;;;25.40;57.70;;;;;;5086470;28;20047;-54
2023/06/08 10:10:12;;;;;;;7.30;4.32;;;25.40;57.80;;;;;;5085788;28;20070;-55
2023/06/08 10:12:38;;;;;;;7.35;3.85;;;25.40;57.70;;;;;;5086181;28;20070;-54
2023/06/08 10:15:05;;;;;;;4.93;3.80;;;25.50;57.80;;;;;;5085704;28;20025;-55
2023/06/08 10:17:33;;;;;;;5.90;3.90;;;25.50;57.70;;;;;;5085141;28;20392;-55
2023/06/08 10:19:59;;;;;;;7.28;4.07;;;25.60;57.60;;;;;;5086207;28;20024;-54
2023/06/08 10:22:26;;;;;;;6.35;4.15;;;25.60;57.50;;;;;;5084108;28;20037;-56
2023/06/08 10:24:52;;;;;;;5.05;4.10;;;25.60;57.40;;;;;;5085331;28;20020;-54
2023/06/08 10:27:24;;;;;;;6.38;3.85;;;25.70;57.40;;;;;;5085432;28;20027;-55
2023/06/08 10:29:55;;;;;;;5.00;3.80;;;25.70;57.50;;;;;;5084542;28;20024;-55
2023/06/08 10:32:29;;;;;;;4.80;3.60;;;25.70;57.60;;;;;;5084944;28;20103;-55
2023/06/08 10:34:59;;;;;;;4.72;3.63;;;25.80;57.90;;;;;;5083480;28;20024;-55
2023/06/08 10:37:27;;;;;;;4.70;4.07;;;25.80;58.10;;;;;;5081373;28;20379;-55
2023/06/08 10:39:53;;;;;;;5.72;4.30;;;25.70;58.30;;;;;;5082203;28;20043;-55
2023/06/08 10:42:19;;;;;;;4.80;3.88;;;25.80;58.70;;;;;;5082599;28;20021;-55
2023/06/08 10:44:53;;;;;;;5.10;4.00;;;25.80;59.00;;;;;;5084181;28;20066;-55
2023/06/08 10:47:19;;;;;;;5.78;3.70;;;25.80;58.60;;;;;;5083315;28;20028;-55
2023/06/08 10:49:46;;;;;;;6.28;3.80;;;25.80;58.50;;;;;;5084254;28;20029;-55
2023/06/08 10:52:18;;;;;;;5.50;4.13;;;25.90;58.50;;;;;;5084047;28;20029;-54
2023/06/08 10:55:14;;;;;;;6.40;3.75;;;25.90;58.40;;;;;;5084620;28;20028;-54
2023/06/08 10:57:52;;;;;;;7.38;3.60;;;25.90;58.40;;;;;;5082557;28;20055;-56
2023/06/08 11:00:25;;;;;;;5.10;3.90;;;25.90;58.30;;;;;;5083805;28;20037;-55
2023/06/08 11:02:51;;;;;;;5.07;4.05;;;25.90;58.40;;;;;;5085633;28;20084;-55
2023/06/08 11:05:18;;;;;;;4.95;4.03;;;25.90;58.30;;;;;;5084093;28;20105;-56
2023/06/08 11:07:44;;;;;;;6.50;3.97;;;25.90;58.40;;;;;;5083596;28;20053;-55
2023/06/08 11:10:10;;;;;;;6.60;3.92;;;25.90;58.20;;;;;;5083773;28;20063;-54
2023/06/08 11:12:36;;;;;;;6.43;4.05;;;26.00;57.90;;;;;;5082363;28;20483;-54
2023/06/08 11:15:02;;;;;;;5.45;3.83;;;25.90;57.50;;;;;;5082770;28;20025;-56
2023/06/08 11:17:27;;;;;;;6.43;3.42;;;25.90;56.90;;;;;;5081860;28;20028;-55
2023/06/08 11:19:53;;;;;;;6.13;3.97;;;26.00;56.90;;;;;;5081297;28;20037;-55
2023/06/08 11:22:21;;;;;;;7.25;3.92;;;26.00;57.20;;;;;;5081892;28;20032;-55
2023/06/08 11:24:47;;;;;;;5.35;4.07;;;25.90;57.30;;;;;;5081391;28;20056;-55
2023/06/08 11:27:17;;;;;;;5.57;4.10;;;25.90;57.30;;;;;;5080718;28;20043;-55
2023/06/08 11:29:45;;;;;;;7.93;4.00;;;25.90;57.50;;;;;;5079745;28;20028;-55
2023/06/08 11:32:13;;;;;;;8.32;5.22;;;25.90;57.90;;;;;;5078798;28;20032;-54
2023/06/08 11:34:41;;;;;;;6.47;3.97;;;25.80;57.20;;;;;;5080234;28;20024;-55
2023/06/08 11:37:07;;;;;;;5.93;3.67;;;25.80;56.90;;;;;;5079580;28;20028;-54
2023/06/08 11:39:33;;;;;;;6.30;3.67;;;25.80;57.20;;;;;;5080040;28;20417;-55
2023/06/08 11:41:59;;;;;;;5.38;3.85;;;25.80;57.30;;;;;;5084132;28;20067;-54
2023/06/08 11:44:30;;;;;;;6.07;3.63;;;25.80;57.10;;;;;;5084931;28;20051;-53
2023/06/08 11:46:56;;;;;;;;;;;25.70;56.60;;;;;;5082433;28;20052;-55
2023/06/08 11:49:23;;;;;;;5.70;4.18;;;25.70;56.90;;;;;;5080339;28;20368;-55
2023/06/08 11:51:50;;;;;;;5.97;3.95;;;25.60;56.80;;;;;;5077593;28;20021;-55
2023/06/08 11:54:16;;;;;;;5.35;3.40;;;25.60;56.80;;;;;;5079129;28;20484;-54
2023/06/08 11:56:45;;;;;;;8.23;6.18;;;25.60;56.80;;;;;;5079451;28;20033;-55
2023/06/08 11:59:12;;;;;;;5.65;4.03;;;25.50;56.60;;;;;;5081384;28;20020;-56
2023/06/08 12:01:54;;;;;;;5.30;4.20;;;25.50;56.90;;;;;;5063618;28;20103;-56
2023/06/08 12:04:20;;;;;;;4.65;3.53;;;25.40;57.10;;;;;;5082848;28;20024;-56
2023/06/08 12:06:46;;;;;;;5.05;3.65;;;25.40;56.90;;;;;;5080967;28;20039;-55
2023/06/08 12:09:11;;;;;;;6.00;3.55;;;25.40;57.00;;;;;;5078619;28;20131;-55
2023/06/08 12:11:37;;;;;;;4.95;3.53;;;25.30;56.80;;;;;;5079262;28;20028;-55
2023/06/08 12:14:03;;;;;;;9.20;3.70;;;25.30;56.90;;;;;;5079424;28;20029;-55
2023/06/08 12:16:41;;;;;;;12.20;5.55;;;25.30;57.40;;;;;;5078942;28;20031;-54
2023/06/08 12:19:07;;;;;;;8.45;4.38;;;25.30;57.60;;;;;;5077419;28;20040;-56
2023/06/08 12:21:39;;;;;;;4.05;3.60;;;25.30;57.80;;;;;;5077467;28;20028;-55
2023/06/08 12:24:05;;;;;;;6.95;3.78;;;25.30;58.00;;;;;;5077043;28;20033;-55
2023/06/08 12:26:31;;;;;;;5.57;3.95;;;25.30;58.40;;;;;;5076466;28;20440;-56
2023/06/08 12:29:04;;;;;;;7.15;3.95;;;25.30;58.60;;;;;;5075525;28;20021;-56
2023/06/08 12:31:30;;;;;;;5.38;4.07;;;25.30;58.90;;;;;;5075448;28;20099;-55
2023/06/08 12:33:56;;;;;;;8.15;4.45;;;25.30;59.30;;;;;;5075389;28;20116;-55
2023/06/08 12:36:22;;;;;;;7.38;4.00;;;25.30;59.70;;;;;;5074956;28;20021;-55
2023/06/08 12:38:48;;;;;;;6.28;3.78;;;25.30;59.90;;;;;;5075274;28;20364;-56
2023/06/08 12:41:14;;;;;;;7.22;4.00;;;25.30;60.50;;;;;;5075579;28;20055;-55
2023/06/08 12:43:44;;;;;;;4.30;3.60;;;25.30;60.80;;;;;;5075729;28;20017;-56
2023/06/08 12:46:11;;;;;;;6.60;3.85;;;25.30;60.60;;;;;;5075709;28;20028;-54
2023/06/08 12:48:36;;;;;;;5.60;3.72;;;25.30;60.30;;;;;;5076446;28;20059;-55
2023/06/08 12:51:02;;;;;;;5.10;3.78;;;25.30;59.50;;;;;;5076062;28;20028;-56
2023/06/08 12:53:27;;;;;;;8.73;6.22;;;25.30;59.50;;;;;;5074439;28;20020;-56